createdAt,value
2023-04-20T00:00:11.085Z,3.13
2023-04-20T00:02:38.718Z,2.67
2023-04-20T00:05:09.234Z,3.55
2023-04-20T00:07:36.535Z,2.78
2023-04-20T00:10:03.836Z,2.60
2023-04-20T00:12:30.545Z,2.60
2023-04-20T00:14:57.165Z,3.05
2023-04-20T00:17:23.814Z,3.13
2023-04-20T00:19:51.109Z,2.63
2023-04-20T00:22:17.701Z,2.92
2023-04-20T00:24:44.304Z,3.05
2023-04-20T00:27:11.852Z,2.53
2023-04-20T00:29:38.464Z,2.67
2023-04-20T00:32:05.374Z,3.22
2023-04-20T00:34:31.939Z,3.08
2023-04-20T00:36:58.546Z,2.58
2023-04-20T00:39:25.468Z,3.00
2023-04-20T00:41:52.060Z,3.00
2023-04-20T00:44:18.634Z,2.78
2023-04-20T00:46:45.517Z,3.53
2023-04-20T00:49:12.300Z,3.08
2023-04-20T00:51:39.106Z,2.75
2023-04-20T00:54:05.926Z,2.67
2023-04-20T00:56:32.741Z,2.70
2023-04-20T00:58:59.508Z,2.65
2023-04-20T01:01:26.158Z,3.08
2023-04-20T01:03:53.902Z,3.10
2023-04-20T01:06:21.240Z,3.38
2023-04-20T01:08:49.236Z,2.72
2023-04-20T01:11:15.963Z,2.97
2023-04-20T01:13:43.226Z,3.10
2023-04-20T01:16:10.018Z,2.83
2023-04-20T01:18:44.554Z,3.08
2023-04-20T01:21:12.662Z,3.03
2023-04-20T01:23:39.394Z,3.13
2023-04-20T01:26:10.442Z,2.90
2023-04-20T01:28:37.478Z,2.50
2023-04-20T01:31:05.448Z,2.58
2023-04-20T01:33:32.220Z,2.60
2023-04-20T01:35:58.916Z,2.80
2023-04-20T01:38:26.071Z,2.60
2023-04-20T01:40:53.740Z,2.88
2023-04-20T01:43:21.476Z,3.17
2023-04-20T01:45:48.076Z,3.42
2023-04-20T01:48:14.674Z,2.90
2023-04-20T01:50:41.315Z,2.60
2023-04-20T01:53:07.941Z,2.92
2023-04-20T01:55:34.578Z,3.10
2023-04-20T01:58:01.124Z,2.78
2023-04-20T02:00:27.815Z,3.15
2023-04-20T02:02:54.604Z,2.72
2023-04-20T02:05:21.435Z,3.25
2023-04-20T02:07:48.147Z,2.78
2023-04-20T02:10:14.716Z,2.92
2023-04-20T02:12:41.343Z,3.10
2023-04-20T02:15:09.396Z,2.88
2023-04-20T02:17:38.651Z,2.60
2023-04-20T02:20:07.274Z,2.83
2023-04-20T02:22:35.198Z,3.00
2023-04-20T02:25:02.617Z,2.85
2023-04-20T02:27:29.201Z,2.65
2023-04-20T02:29:56.384Z,3.03
2023-04-20T02:32:23.066Z,2.92
2023-04-20T02:34:49.637Z,2.70
2023-04-20T02:37:16.233Z,3.38
2023-04-20T02:39:42.966Z,3.50
2023-04-20T02:42:09.568Z,2.58
2023-04-20T02:44:36.274Z,3.00
2023-04-20T02:47:02.839Z,2.92
2023-04-20T02:49:29.446Z,2.33
2023-04-20T02:51:56.038Z,3.05
2023-04-20T02:54:22.634Z,3.13
2023-04-20T02:56:49.192Z,3.17
2023-04-20T02:59:16.024Z,3.10
2023-04-20T03:01:42.751Z,3.20
2023-04-20T03:04:09.620Z,3.10
2023-04-20T03:06:38.650Z,3.08
2023-04-20T03:09:05.523Z,2.83
2023-04-20T03:11:32.138Z,3.00
2023-04-20T03:13:58.694Z,3.40
2023-04-20T03:16:25.605Z,2.50
2023-04-20T03:18:52.253Z,3.15
2023-04-20T03:21:18.841Z,3.17
2023-04-20T03:23:45.441Z,3.38
2023-04-20T03:26:13.591Z,3.10
2023-04-20T03:28:41.366Z,3.05
2023-04-20T03:31:07.956Z,3.20
2023-04-20T03:33:34.537Z,3.22
2023-04-20T03:36:01.129Z,2.65
2023-04-20T03:38:27.725Z,2.90
2023-04-20T03:40:54.407Z,3.08
2023-04-20T03:43:21.020Z,3.85
2023-04-20T03:45:47.726Z,3.70
2023-04-20T03:48:14.342Z,2.90
2023-04-20T03:50:40.958Z,2.90
2023-04-20T03:53:07.541Z,2.70
2023-04-20T03:55:34.094Z,3.28
2023-04-20T03:58:00.662Z,3.30
2023-04-20T04:00:27.269Z,3.33
2023-04-20T04:02:54.064Z,3.05
2023-04-20T04:05:21.152Z,3.22
2023-04-20T04:07:48.125Z,3.25
2023-04-20T04:10:14.754Z,3.00
2023-04-20T04:12:41.476Z,3.95
2023-04-20T04:15:08.640Z,3.35
2023-04-20T04:17:35.550Z,3.17
2023-04-20T04:20:02.138Z,2.80
2023-04-20T04:22:30.429Z,3.10
2023-04-20T04:27:24.802Z,3.13
2023-04-20T04:29:51.405Z,3.15
2023-04-20T04:32:18.009Z,3.78
2023-04-20T04:34:44.570Z,3.15
2023-04-20T04:37:11.891Z,3.25
2023-04-20T04:39:38.800Z,3.70
2023-04-20T04:42:05.678Z,3.72
2023-04-20T04:44:33.296Z,3.10
2023-04-20T04:46:59.885Z,3.30
2023-04-20T04:49:26.752Z,3.65
2023-04-20T04:51:53.408Z,4.53
2023-04-20T04:54:19.985Z,3.28
2023-04-20T04:56:46.552Z,3.50
2023-04-20T04:59:13.146Z,3.45
2023-04-20T05:01:39.780Z,3.63
2023-04-20T05:04:06.612Z,3.70
2023-04-20T05:06:33.419Z,4.13
2023-04-20T05:08:59.997Z,3.55
2023-04-20T05:11:26.586Z,4.00
2023-04-20T05:13:53.185Z,4.22
2023-04-20T05:16:19.769Z,3.55
2023-04-20T05:18:46.374Z,3.63
2023-04-20T05:21:12.944Z,4.05
2023-04-20T05:23:39.637Z,4.07
2023-04-20T05:26:06.560Z,3.70
2023-04-20T05:28:34.606Z,3.45
2023-04-20T05:31:01.789Z,4.22
2023-04-20T05:33:28.368Z,4.13
2023-04-20T05:35:57.984Z,3.88
2023-04-20T05:38:25.489Z,3.97
2023-04-20T05:40:52.228Z,3.77
2023-04-20T05:43:19.320Z,4.00
2023-04-20T05:45:46.718Z,3.40
2023-04-20T05:48:13.339Z,4.22
2023-04-20T05:50:40.371Z,4.35
2023-04-20T05:53:07.000Z,3.90
2023-04-20T05:55:33.550Z,4.03
2023-04-20T05:58:00.677Z,4.15
2023-04-20T06:00:27.267Z,3.90
2023-04-20T06:02:55.037Z,3.65
2023-04-20T06:05:22.134Z,4.03
2023-04-20T06:07:48.766Z,3.78
2023-04-20T06:10:15.375Z,3.40
2023-04-20T06:12:41.976Z,4.35
2023-04-20T06:15:10.865Z,3.60
2023-04-20T06:17:40.704Z,4.57
2023-04-20T06:20:11.739Z,4.63
2023-04-20T06:22:44.207Z,4.43
2023-04-20T06:25:11.283Z,4.55
2023-04-20T06:27:37.890Z,4.07
2023-04-20T06:30:05.616Z,3.80
2023-04-20T06:32:32.269Z,4.68
2023-04-20T06:34:58.863Z,4.30
2023-04-20T06:37:25.443Z,4.13
2023-04-20T06:39:55.075Z,4.25
2023-04-20T06:42:22.442Z,3.95
2023-04-20T06:44:49.090Z,4.25
2023-04-20T06:47:15.838Z,3.53
2023-04-20T06:49:43.448Z,4.38
2023-04-20T06:52:10.211Z,3.95
2023-04-20T06:54:36.801Z,3.53
2023-04-20T06:57:03.381Z,4.50
2023-04-20T06:59:29.984Z,3.92
2023-04-20T07:01:56.673Z,4.15
2023-04-20T07:04:23.304Z,4.25
2023-04-20T07:06:53.813Z,4.22
2023-04-20T07:09:21.050Z,3.95
2023-04-20T07:11:47.612Z,4.40
2023-04-20T07:14:14.453Z,4.53
2023-04-20T07:16:41.110Z,4.18
2023-04-20T07:19:07.840Z,4.72
2023-04-20T07:21:35.612Z,4.07
2023-04-20T07:24:02.589Z,4.55
2023-04-20T07:26:29.145Z,4.68
2023-04-20T07:28:55.774Z,4.82
2023-04-20T07:31:22.431Z,4.80
2023-04-20T07:33:49.062Z,4.03
2023-04-20T07:36:15.626Z,4.47
2023-04-20T07:38:42.196Z,4.88
2023-04-20T07:41:10.252Z,4.60
2023-04-20T07:43:37.430Z,4.80
2023-04-20T07:46:04.230Z,4.72
2023-04-20T07:48:31.900Z,4.55
2023-04-20T07:50:58.463Z,4.93
2023-04-20T07:53:25.042Z,4.93
2023-04-20T07:55:51.607Z,4.57
2023-04-20T07:58:18.533Z,4.82
2023-04-20T08:00:48.117Z,4.60
2023-04-20T08:03:15.398Z,4.82
2023-04-20T08:05:42.219Z,4.47
2023-04-20T08:08:09.063Z,5.32
2023-04-20T08:10:35.955Z,4.68
2023-04-20T08:13:02.626Z,5.63
2023-04-20T08:15:29.502Z,4.70
2023-04-20T08:17:56.598Z,4.88
2023-04-20T08:20:23.186Z,4.43
2023-04-20T08:22:50.725Z,5.43
2023-04-20T08:25:17.513Z,4.70
2023-04-20T08:27:44.198Z,4.78
2023-04-20T08:30:11.527Z,4.78
2023-04-20T08:32:38.216Z,4.95
2023-04-20T08:35:05.328Z,5.03
2023-04-20T08:37:33.105Z,5.35
2023-04-20T08:39:59.833Z,5.43
2023-04-20T08:42:26.439Z,4.60
2023-04-20T08:44:53.512Z,4.70
2023-04-20T08:47:21.404Z,4.38
2023-04-20T08:49:49.149Z,4.90
2023-04-20T08:52:15.841Z,4.80
2023-04-20T08:54:55.368Z,4.55
2023-04-20T08:57:23.880Z,4.00
2023-04-20T08:59:50.728Z,3.67
2023-04-20T09:02:18.052Z,4.10
2023-04-20T09:04:48.978Z,4.32
2023-04-20T09:07:22.039Z,3.40
2023-04-20T09:09:56.360Z,3.85
2023-04-20T09:12:23.183Z,4.07
2023-04-20T09:14:49.863Z,3.80
2023-04-20T09:17:18.044Z,3.58
2023-04-20T09:19:46.206Z,3.15
2023-04-20T09:22:12.874Z,3.78
2023-04-20T09:24:41.185Z,3.78
2023-04-20T09:27:18.194Z,4.07
2023-04-20T09:29:57.687Z,3.70
2023-04-20T09:32:25.820Z,3.38
2023-04-20T09:34:52.491Z,3.35
2023-04-20T09:37:19.150Z,3.70
2023-04-20T09:39:46.085Z,3.55
2023-04-20T09:42:13.869Z,4.00
2023-04-20T09:44:41.064Z,3.72
2023-04-20T09:47:08.862Z,3.90
2023-04-20T09:49:35.659Z,3.90
2023-04-20T09:52:03.654Z,4.13
2023-04-20T09:54:31.490Z,3.78
2023-04-20T09:57:02.097Z,3.67
2023-04-20T09:59:29.804Z,3.65
2023-04-20T10:01:56.618Z,4.30
2023-04-20T10:04:23.588Z,3.92
2023-04-20T10:07:03.177Z,2.97
2023-04-20T10:09:31.402Z,3.45
2023-04-20T10:12:09.218Z,3.40
2023-04-20T10:14:35.973Z,4.13
2023-04-20T10:17:07.635Z,3.85
2023-04-20T10:19:40.782Z,4.03
2023-04-20T10:22:08.955Z,3.95
2023-04-20T10:24:38.032Z,4.47
2023-04-20T10:27:16.283Z,4.40
2023-04-20T10:29:42.869Z,4.30
2023-04-20T10:32:09.425Z,3.72
2023-04-20T10:34:36.876Z,4.55
2023-04-20T10:37:11.128Z,4.63
2023-04-20T10:39:44.851Z,4.57
2023-04-20T10:42:11.650Z,4.18
2023-04-20T10:44:54.599Z,4.57
2023-04-20T10:47:29.821Z,3.95
2023-04-20T10:50:09.287Z,4.53
2023-04-20T10:52:37.109Z,5.25
2023-04-20T10:55:04.900Z,4.60
2023-04-20T10:57:31.620Z,4.43
2023-04-20T10:59:58.259Z,4.30
2023-04-20T11:02:25.034Z,5.22
2023-04-20T11:04:53.309Z,5.03
2023-04-20T11:07:20.971Z,4.60
2023-04-20T11:09:55.305Z,5.13
2023-04-20T11:12:22.026Z,5.30
2023-04-20T11:14:58.758Z,4.72
2023-04-20T11:17:37.410Z,4.80
2023-04-20T11:20:14.378Z,4.00
2023-04-20T11:22:41.940Z,4.50
2023-04-20T11:25:10.833Z,4.83
2023-04-20T11:27:38.669Z,4.63
2023-04-20T11:30:07.909Z,4.40
2023-04-20T11:32:36.131Z,3.88
2023-04-20T11:35:08.735Z,4.25
2023-04-20T11:37:47.386Z,4.40
2023-04-20T11:40:15.209Z,4.20
2023-04-20T11:42:41.914Z,4.25
2023-04-20T11:45:08.863Z,4.25
2023-04-20T11:47:35.500Z,4.25
2023-04-20T11:50:02.100Z,4.50
2023-04-20T11:52:28.663Z,4.40
2023-04-20T11:54:55.319Z,4.38
2023-04-20T11:57:23.961Z,4.07
2023-04-20T11:59:50.632Z,4.07
2023-04-20T12:02:17.376Z,4.32
2023-04-20T12:04:44.282Z,3.90
2023-04-20T12:07:11.280Z,4.72
2023-04-20T12:09:38.444Z,4.43
2023-04-20T12:12:05.769Z,4.05
2023-04-20T12:14:35.844Z,4.88
2023-04-20T12:17:04.047Z,4.65
2023-04-20T12:19:31.283Z,4.60
2023-04-20T12:21:57.865Z,4.40
2023-04-20T12:24:24.514Z,4.80
2023-04-20T12:26:51.680Z,4.72
2023-04-20T12:29:18.635Z,4.80
2023-04-20T12:31:45.405Z,5.65
2023-04-20T12:34:12.531Z,4.88
2023-04-20T12:36:39.276Z,6.10
2023-04-20T12:39:05.915Z,4.85
2023-04-20T12:41:33.389Z,5.45
2023-04-20T12:44:00.751Z,5.00
2023-04-20T12:46:28.852Z,5.45
2023-04-20T12:48:56.227Z,5.20
2023-04-20T12:51:22.829Z,5.15
2023-04-20T12:53:50.731Z,5.47
2023-04-20T12:56:17.298Z,5.13
2023-04-20T12:58:44.294Z,4.90
2023-04-20T13:01:10.900Z,5.38
2023-04-20T13:03:37.758Z,5.10
2023-04-20T13:06:05.326Z,5.32
2023-04-20T13:08:31.904Z,5.20
2023-04-20T13:10:58.501Z,5.63
2023-04-20T13:13:25.102Z,5.40
2023-04-20T13:15:53.961Z,4.93
2023-04-20T13:18:21.658Z,4.60
2023-04-20T13:20:48.234Z,4.72
2023-04-20T13:23:15.459Z,4.32
2023-04-20T13:25:42.241Z,3.88
2023-04-20T13:28:08.821Z,5.30
2023-04-20T13:30:35.586Z,4.95
2023-04-20T13:33:02.275Z,4.80
2023-04-20T13:35:29.083Z,5.25
2023-04-20T13:37:55.730Z,4.43
2023-04-20T13:40:22.379Z,4.35
2023-04-20T13:42:49.791Z,4.47
2023-04-20T13:45:16.439Z,4.55
2023-04-20T13:47:43.129Z,4.43
2023-04-20T13:50:10.490Z,4.32
2023-04-20T13:52:37.228Z,4.00
2023-04-20T13:55:05.182Z,3.55
2023-04-20T13:57:31.809Z,3.72
2023-04-20T13:59:59.198Z,3.58
2023-04-20T14:02:26.001Z,4.30
2023-04-20T14:04:53.014Z,3.60
2023-04-20T14:07:19.648Z,4.57
2023-04-20T14:09:46.390Z,4.13
2023-04-20T14:12:13.576Z,3.72
2023-04-20T14:14:40.713Z,3.45
2023-04-20T14:17:07.374Z,3.40
2023-04-20T14:19:33.923Z,3.92
2023-04-20T14:22:00.514Z,4.03
2023-04-20T14:24:27.519Z,3.75
2023-04-20T14:26:54.349Z,3.80
2023-04-20T14:29:21.179Z,3.58
2023-04-20T14:31:47.790Z,3.22
2023-04-20T14:34:14.530Z,3.15
2023-04-20T14:36:41.145Z,3.83
2023-04-20T14:39:07.760Z,3.60
2023-04-20T14:41:34.574Z,4.28
2023-04-20T14:44:01.274Z,4.03
2023-04-20T14:46:27.981Z,3.50
2023-04-20T14:48:54.660Z,3.72
2023-04-20T14:51:21.293Z,3.80
2023-04-20T14:53:47.890Z,3.90
2023-04-20T14:56:14.517Z,4.43
2023-04-20T14:58:42.433Z,3.88
2023-04-20T15:01:09.101Z,3.80
2023-04-20T15:03:35.940Z,3.75
2023-04-20T15:06:03.635Z,4.32
2023-04-20T15:08:30.672Z,4.00
2023-04-20T15:10:57.421Z,4.32
2023-04-20T15:13:24.318Z,4.00
2023-04-20T15:15:52.622Z,4.50
2023-04-20T15:18:20.874Z,4.47
2023-04-20T15:20:47.501Z,4.57
2023-04-20T15:23:14.061Z,4.35
2023-04-20T15:25:40.656Z,4.28
2023-04-20T15:28:07.215Z,4.22
2023-04-20T15:30:33.930Z,4.00
2023-04-20T15:33:04.827Z,4.10
2023-04-20T15:35:32.148Z,5.25
2023-04-20T15:37:58.782Z,4.75
2023-04-20T15:40:27.259Z,4.82
2023-04-20T15:47:49.715Z,4.97
2023-04-20T15:50:16.745Z,4.40
2023-04-20T15:52:43.860Z,4.35
2023-04-20T15:55:11.662Z,4.55
2023-04-20T15:57:38.246Z,4.05
2023-04-20T16:00:05.388Z,4.60
2023-04-20T16:02:32.103Z,4.63
2023-04-20T16:04:59.012Z,4.68
2023-04-20T16:07:25.907Z,5.15
2023-04-20T16:09:52.531Z,4.40
2023-04-20T16:12:19.154Z,4.70
2023-04-20T16:14:45.803Z,4.70
2023-04-20T16:17:12.381Z,4.82
2023-04-20T16:19:38.960Z,4.60
2023-04-20T16:22:05.640Z,4.90
2023-04-20T16:24:32.221Z,6.25
2023-04-20T16:27:01.127Z,6.03
2023-04-20T16:29:28.442Z,6.32
2023-04-20T16:31:55.115Z,6.25
2023-04-20T16:34:21.773Z,6.25
2023-04-20T16:36:50.186Z,6.45
2023-04-20T16:39:17.760Z,6.53
2023-04-20T16:41:44.615Z,6.10
2023-04-20T16:44:13.686Z,5.75
2023-04-20T16:46:41.749Z,6.45
2023-04-20T16:49:09.144Z,6.53
2023-04-20T16:51:35.865Z,5.60
2023-04-20T16:54:02.464Z,6.80
2023-04-20T16:56:29.039Z,6.55
2023-04-20T16:58:55.686Z,6.90
2023-04-20T17:01:22.473Z,6.72
2023-04-20T17:03:49.252Z,6.43
2023-04-20T17:06:16.057Z,6.95
2023-04-20T17:08:42.713Z,7.05
2023-04-20T17:11:09.329Z,7.13
2023-04-20T17:13:35.938Z,7.00
2023-04-20T17:16:02.554Z,6.82
2023-04-20T17:18:29.243Z,7.45
2023-04-20T17:20:57.281Z,7.20
2023-04-20T17:23:24.065Z,7.10
2023-04-20T17:25:51.379Z,5.95
2023-04-20T17:28:18.015Z,5.93
2023-04-20T17:30:44.607Z,6.55
2023-04-20T17:33:14.269Z,5.53
2023-04-20T17:35:40.917Z,5.75
2023-04-20T17:38:07.574Z,5.25
2023-04-20T17:40:34.332Z,5.40
2023-04-20T17:43:01.681Z,5.40
2023-04-20T17:45:28.313Z,4.78
2023-04-20T17:47:54.994Z,4.57
2023-04-20T17:50:22.683Z,4.68
2023-04-20T17:52:49.555Z,5.10
2023-04-20T17:55:16.191Z,4.53
2023-04-20T17:57:42.799Z,4.13
2023-04-20T18:00:11.751Z,3.67
2023-04-20T18:02:39.090Z,4.22
2023-04-20T18:05:06.533Z,4.45
2023-04-20T18:07:33.356Z,4.40
2023-04-20T18:09:59.922Z,4.80
2023-04-20T18:12:26.831Z,5.18
2023-04-20T18:14:53.502Z,6.10
2023-04-20T18:17:20.085Z,6.18
2023-04-20T18:19:46.726Z,6.43
2023-04-20T18:22:13.298Z,6.93
2023-04-20T18:24:39.978Z,6.93
2023-04-20T18:27:06.667Z,7.80
2023-04-20T18:29:33.285Z,7.93
2023-04-20T18:32:01.307Z,7.53
2023-04-20T18:34:31.057Z,8.18
2023-04-20T18:36:58.432Z,8.57
2023-04-20T18:39:25.284Z,8.85
2023-04-20T18:41:51.856Z,9.27
2023-04-20T18:44:18.572Z,9.07
2023-04-20T18:46:45.439Z,8.82
2023-04-20T18:49:12.163Z,9.02
2023-04-20T18:51:38.802Z,9.50
2023-04-20T18:54:05.566Z,10.65
2023-04-20T18:56:32.277Z,9.77
2023-04-20T18:58:59.603Z,9.48
2023-04-20T19:01:27.281Z,10.80
2023-04-20T19:03:54.225Z,11.20
2023-04-20T19:06:20.917Z,10.55
2023-04-20T19:08:47.515Z,10.95
2023-04-20T19:11:14.097Z,11.57
2023-04-20T19:13:44.564Z,10.77
2023-04-20T19:16:12.336Z,11.68
2023-04-20T19:18:39.714Z,11.10
2023-04-20T19:21:06.902Z,10.88
2023-04-20T19:23:35.673Z,11.93
2023-04-20T19:26:02.842Z,12.18
2023-04-20T19:28:29.896Z,11.60
2023-04-20T19:30:56.963Z,12.43
2023-04-20T19:33:23.558Z,12.35
2023-04-20T19:35:53.493Z,12.98
2023-04-20T19:38:21.241Z,12.43
2023-04-20T19:40:48.543Z,12.63
2023-04-20T19:43:16.951Z,11.43
2023-04-20T19:48:10.239Z,12.07
2023-04-20T19:50:36.858Z,12.60
2023-04-20T19:53:03.521Z,11.57
2023-04-20T19:55:30.492Z,11.60
2023-04-20T19:57:57.075Z,11.35
2023-04-20T20:00:23.763Z,11.32
2023-04-20T20:02:50.564Z,11.18
2023-04-20T20:05:17.579Z,10.68
2023-04-20T20:07:44.481Z,10.82
2023-04-20T20:10:11.158Z,12.45
2023-04-20T20:12:37.761Z,10.40
2023-04-20T20:15:04.868Z,11.10
2023-04-20T20:17:31.675Z,10.82
2023-04-20T20:19:58.312Z,10.50
2023-04-20T20:22:25.052Z,11.13
2023-04-20T20:24:54.181Z,10.73
2023-04-20T20:27:21.320Z,10.90
2023-04-20T20:29:47.929Z,10.77
2023-04-20T20:32:14.589Z,11.93
2023-04-20T20:34:41.398Z,12.48
2023-04-20T20:37:10.352Z,12.23
2023-04-20T20:39:37.418Z,11.10
2023-04-20T20:42:04.809Z,10.32
2023-04-20T20:47:06.856Z,9.63
2023-04-20T20:49:33.762Z,11.77
2023-04-20T20:52:02.080Z,11.23
2023-04-20T20:54:28.716Z,11.65
2023-04-20T20:56:55.285Z,10.73
2023-04-20T20:59:21.859Z,10.48
2023-04-20T21:01:48.489Z,10.50
2023-04-20T21:04:15.265Z,9.57
2023-04-20T21:06:41.880Z,9.80
2023-04-20T21:09:08.483Z,10.68
2023-04-20T21:11:35.056Z,9.77
2023-04-20T21:14:02.904Z,9.45
2023-04-20T21:16:29.612Z,9.55
2023-04-20T21:18:56.346Z,9.88
2023-04-20T21:21:23.113Z,10.50
2023-04-20T21:23:50.206Z,10.35
2023-04-20T21:26:16.859Z,9.98
